Lulu Pass Weather Station

This weather station provides temperature, relative humidity (RH), wind speed, gust or max wind speed, and wind direction at 10014ft near Lulu Pass at the head of Fisher Creek. This data can be used with temperature and precipitation data from the Fisher Creek SNOTEL site.

This weather station was purchased by the Friends of the Avalanche Center.

If the data has not been updated recently you can view it directly on datagarrison.com

Elevation
10014ft
Jump to table bottom
Date Time Temperature
deg F
RH, % Wind Speed Wind Gust Wind Direction
02/25/21 10:00 0.7 84 10 25 SW - 239
02/25/21 09:00 -0.6 84 9 24 SW - 219
02/25/21 08:00 -2.2 86 9 18 SW - 237
02/25/21 07:00 -3.5 87 11 20 SW - 233
02/25/21 06:00 -3.0 88 11 18 SW - 225
02/25/21 05:00 -2.9 88 8 17 SW - 243
02/25/21 04:00 -3.5 89 6 11 W - 267
02/25/21 03:00 -2.7 89 6 12 W - 260
02/25/21 02:00 -2.8 89 7 13 W - 286
02/25/21 01:00 -1.9 89 10 22 NW - 295
02/25/21 00:00 -1.7 89 8 18 W - 292
02/24/21 23:00 -1.3 89 8 15 NW - 303
02/24/21 22:00 -1.7 89 10 15 NW - 314
02/24/21 21:00 -2.1 89 11 19 NW - 319
02/24/21 20:00 -1.3 89 14 18 NW - 331
02/24/21 19:00 -0.4 89 11 16 NW - 331
02/24/21 18:00 1.2 90 11 17 NW - 331
02/24/21 17:00 2.2 90 11 17 N - 6
02/24/21 16:00 2.2 90 14 21 N - 341
02/24/21 15:00 3.5 90 13 20 NW - 334
02/24/21 14:00 3.0 90 11 14 NW - 336
02/24/21 13:00 3.5 90 10 16 NW - 329
02/24/21 12:00 8.0 91 4 10 NW - 300
02/24/21 11:00 4.5 90 7 10 NW - 320
02/24/21 10:00 2.0 89 6 8 NW - 320
02/24/21 09:00 1.3 89 5 9 NW - 326
02/24/21 08:00 -1.1 89 5 10 NW - 310
02/24/21 07:00 -1.5 89 3 7 NW - 300
02/24/21 06:00 -1.4 90 3 7 W - 285
02/24/21 05:00 -1.1 90 5 11 NW - 327
02/24/21 04:00 -0.9 90 4 10 NW - 337
02/24/21 03:00 -1.3 90 3 7 NW - 321
02/24/21 02:00 -0.7 90 4 10 NW - 309
02/24/21 01:00 0.2 90 7 15 NW - 295
02/24/21 00:00 0.6 90 8 17 W - 272
02/23/21 23:00 1.0 90 9 18 W - 274
02/23/21 22:00 1.8 90 13 28 NW - 298
02/23/21 21:00 2.2 90 12 27 W - 284
02/23/21 20:00 2.2 90 17 32 NW - 299
02/23/21 19:00 2.5 90 17 43 W - 285
02/23/21 18:00 3.1 91 21 48 NW - 298
02/23/21 17:00 4.2 91 21 37 NW - 309
02/23/21 16:00 4.4 91 25 47 NW - 319
02/23/21 15:00 4.8 91 27 43 NW - 316
02/23/21 14:00 5.3 90 24 47 NW - 300
02/23/21 13:00 6.0 90 20 38 NW - 296
02/23/21 12:00 6.0 91 19 35 NW - 296
02/23/21 11:00 6.0 91 32 46 NW - 320
02/23/21 10:00 7.1 92 21 34 NW - 302
02/23/21 09:00 7.6 92 24 43 NW - 300